York, NE

5:14 PM CDT on September 29, 2016 (GMT -0500)
York Municipal

Weather History for KJYR - May, 2013

Change the Weather History Date:

Tuesday, May 14, 2013

  Actual Average Record
Temperature  
Mean Temperature 78 °F -  
Max Temperature 102 °F 74 °F 102 °F (2013)
Min Temperature 55 °F 48 °F 27 °F (1953)
Cooling Degree Days 14    
Growing Degree Days 28 (Base 50)    
Moisture  
Dew Point 49 °F    
Average Humidity 46    
Maximum Humidity 94    
Minimum Humidity 10    
Precipitation  
Precipitation 0.02 in - - ()
Sea Level Pressure  
Sea Level Pressure 29.76 in    
Wind  
Wind Speed 11 mph (SW)    
Max Wind Speed 25 mph    
Max Gust Speed 53 mph    
Visibility 10 miles    
Events Rain , Thunderstorm    
Averages and records for this station are not official NWS values.
T = Trace of Precipitation, MM = Missing Value Source: NWS Daily Summary

Daily Weather History Graph

Daily Weather History Graph

Search for Another Location

Airport or City:

Trip Planner

Search our weather history database for the weather conditions in past years. The results will help you decide how hot, cold, wet, or windy it might be!

Date:

Astronomy

May. 14, 2013 Rise Set
Actual Time 6:13 AM CDT 8:40 PM CDT
Civil Twilight 5:42 AM CDT 9:11 PM CDT
Nautical Twilight 5:03 AM CDT 9:50 PM CDT
Astronomical Twilight 4:20 AM CDT 10:33 PM CDT
Moon 9:54 AM CDT (5/14) No Moon Set
Length of Visible Light 15h 29m
Length of Day
14h 26m
Waxing Crescent, 19% of the Moon is Illuminated
May 14
Waxing Crescent
May 17
First Quarter
May 24
Full
May 31
Last Quarter
Jun 8
New

Hourly Weather History & Observations

Time (CDT) Temp. Heat Index Dew Point Humidity Pressure Visibility Wind Dir Wind Speed Gust Speed Precip Events Conditions
12:15 AM 66.2 °F - 55.4 °F 68% 29.87 in 10.0 mi SSW 8.1 mph - N/A   Clear
12:35 AM 64.4 °F - 55.4 °F 73% 29.87 in 10.0 mi SSW 9.2 mph - N/A   Clear
12:55 AM 64.4 °F - 55.4 °F 73% 29.87 in 10.0 mi SSW 6.9 mph - N/A   Clear
1:15 AM 62.6 °F - 55.4 °F 77% 29.86 in 10.0 mi SSW 5.8 mph - N/A   Clear
1:35 AM 60.8 °F - 53.6 °F 77% 29.85 in 10.0 mi SSW 5.8 mph - N/A   Clear
1:55 AM 59.0 °F - 53.6 °F 82% 29.85 in 10.0 mi SSW 6.9 mph - N/A   Clear
2:15 AM 59.0 °F - 55.4 °F 88% 29.85 in 10.0 mi SSW 6.9 mph - N/A   Clear
2:35 AM 59.0 °F - 53.6 °F 82% 29.84 in 10.0 mi SW 6.9 mph - N/A   Clear
2:55 AM 59.0 °F - 53.6 °F 82% 29.83 in 10.0 mi SW 8.1 mph - N/A   Clear
3:15 AM 59.0 °F - 55.4 °F 88% 29.83 in 10.0 mi SW 8.1 mph - N/A   Clear
3:35 AM 59.0 °F - 55.4 °F 88% 29.82 in 10.0 mi SW 8.1 mph - N/A   Clear
3:55 AM 59.0 °F - 53.6 °F 82% 29.81 in 10.0 mi SW 8.1 mph - N/A   Clear
4:15 AM 59.0 °F - 53.6 °F 82% 29.81 in 10.0 mi SSW 8.1 mph - N/A   Clear
4:35 AM 57.2 °F - 53.6 °F 88% 29.81 in 10.0 mi SSW 8.1 mph - N/A   Clear
4:55 AM 57.2 °F - 53.6 °F 88% 29.81 in 10.0 mi SSW 8.1 mph - N/A   Clear
5:15 AM 57.2 °F - 53.6 °F 88% 29.81 in 10.0 mi SSW 8.1 mph - N/A   Clear
5:35 AM 55.4 °F - 53.6 °F 94% 29.80 in 10.0 mi SSW 9.2 mph - N/A   Clear
5:55 AM 55.4 °F - 53.6 °F 94% 29.80 in 10.0 mi SW 8.1 mph - N/A   Clear
6:15 AM 55.4 °F - 53.6 °F 94% 29.80 in 10.0 mi SSW 8.1 mph - N/A   Clear
6:35 AM 57.2 °F - 53.6 °F 88% 29.80 in 10.0 mi SW 8.1 mph - N/A   Clear
6:55 AM 57.2 °F - 53.6 °F 88% 29.80 in 10.0 mi SW 8.1 mph - N/A   Clear
7:15 AM 59.0 °F - 53.6 °F 82% 29.80 in 10.0 mi SW 8.1 mph - N/A   Clear
7:35 AM 62.6 °F - 55.4 °F 77% 29.80 in 10.0 mi SW 6.9 mph - N/A   Clear
7:55 AM 64.4 °F - 55.4 °F 73% 29.79 in 10.0 mi SW 10.4 mph - N/A   Clear
8:15 AM 68.0 °F - 55.4 °F 64% 29.80 in 10.0 mi SW 9.2 mph - N/A   Clear
8:35 AM 73.4 °F - 53.6 °F 50% 29.79 in 10.0 mi WSW 10.4 mph - N/A   Clear
8:55 AM 75.2 °F - 53.6 °F 47% 29.79 in 10.0 mi SW 10.4 mph - N/A   Clear
9:15 AM 78.8 °F - 50.0 °F 36% 29.78 in 10.0 mi SW 10.4 mph - N/A   Clear
9:35 AM 80.6 °F - 51.8 °F 37% 29.78 in 10.0 mi SW 13.8 mph - N/A   Clear
9:55 AM 82.4 °F - 50.0 °F 32% 29.78 in 10.0 mi SW 13.8 mph - N/A   Clear
10:15 AM 86.0 °F - 50.0 °F 29% 29.77 in 10.0 mi SW 12.7 mph - N/A   Clear
10:35 AM 89.6 °F - 50.0 °F 26% 29.77 in 10.0 mi SSW 12.7 mph - N/A   Clear
10:55 AM 93.2 °F - 48.2 °F 21% 29.77 in 10.0 mi SW 16.1 mph - N/A   Clear
11:15 AM 95.0 °F - 44.6 °F 18% 29.76 in 10.0 mi SW 16.1 mph - N/A   Clear
11:35 AM 96.8 °F - 44.6 °F 17% 29.76 in 10.0 mi SW 16.1 mph - N/A   Clear
11:55 AM 96.8 °F - 44.6 °F 17% 29.76 in 10.0 mi SW 17.3 mph - N/A   Clear
12:15 PM 100.4 °F - 42.8 °F 14% 29.75 in 10.0 mi SSW 19.6 mph 24.2 mph N/A   Clear
12:35 PM 100.4 °F - 39.2 °F 12% 29.73 in 10.0 mi SW 20.7 mph 27.6 mph N/A   Clear
12:55 PM 100.4 °F - 39.2 °F 12% 29.72 in 10.0 mi SSW 25.3 mph 31.1 mph N/A   Clear
1:15 PM 100.4 °F - 37.4 °F 11% 29.72 in 10.0 mi SSW 25.3 mph 31.1 mph N/A   Clear
1:35 PM 100.4 °F - 37.4 °F 11% 29.72 in 10.0 mi SW 20.7 mph 31.1 mph N/A   Clear
1:55 PM 100.4 °F - 35.6 °F 11% 29.71 in 10.0 mi SW 19.6 mph 32.2 mph N/A   Clear
2:15 PM 100.4 °F - 35.6 °F 11% 29.71 in 10.0 mi SSW 21.9 mph 38.0 mph N/A   Clear
2:35 PM 100.4 °F - 37.4 °F 11% 29.70 in 10.0 mi SSW 21.9 mph 33.4 mph N/A   Clear
2:55 PM 102.2 °F - 35.6 °F 10% 29.70 in 10.0 mi SW 21.9 mph 34.5 mph N/A   Clear
3:15 PM 102.2 °F - 41.0 °F 12% 29.69 in 10.0 mi SSW 23.0 mph 27.6 mph N/A   Clear
3:35 PM 100.4 °F - 41.0 °F 13% 29.69 in 10.0 mi SSW 21.9 mph 27.6 mph N/A   Clear
3:55 PM 100.4 °F - 46.4 °F 16% 29.68 in 10.0 mi SW 23.0 mph 31.1 mph N/A   Clear
4:15 PM 98.6 °F - 42.8 °F 15% 29.67 in 10.0 mi SSW 23.0 mph 27.6 mph N/A   Clear
4:35 PM 100.4 °F - 44.6 °F 15% 29.67 in 10.0 mi SSW 21.9 mph - N/A   Clear
4:55 PM 100.4 °F - 44.6 °F 15% 29.66 in 10.0 mi SW 20.7 mph - N/A   Clear
5:15 PM 100.4 °F - 41.0 °F 13% 29.67 in 10.0 mi SW 23.0 mph 27.6 mph N/A   Clear
5:35 PM 98.6 °F - 41.0 °F 14% 29.68 in 10.0 mi WSW 17.3 mph 21.9 mph N/A   Clear
5:55 PM 95.0 °F - 41.0 °F 15% 29.69 in 10.0 mi West 15.0 mph - N/A   Clear
6:15 PM 82.4 °F - 50.0 °F 32% 29.74 in 3.0 mi WSW 18.4 mph 52.9 mph 0.01 in Rain , Thunderstorm Light Thunderstorms and Rain
6:35 PM 82.4 °F 81.7 °F 55.4 °F 39% 29.70 in 10.0 mi SSW 20.7 mph 24.2 mph 0.02 in Rain Light Rain
6:55 PM 87.8 °F - 46.4 °F 24% 29.69 in 10.0 mi SSE 6.9 mph - 0.02 in   Partly Cloudy
7:15 PM 82.4 °F 81.4 °F 53.6 °F 37% 29.69 in 10.0 mi SE 10.4 mph - N/A   Clear
7:35 PM 80.6 °F 80.5 °F 55.4 °F 42% 29.70 in 10.0 mi ESE 11.5 mph - N/A   Clear
7:55 PM 80.6 °F 80.3 °F 53.6 °F 39% 29.70 in 10.0 mi SSE 11.5 mph - N/A   Clear
8:15 PM 80.6 °F 80.3 °F 53.6 °F 39% 29.70 in 10.0 mi SSE 11.5 mph - N/A   Clear
8:35 PM 78.8 °F - 53.6 °F 42% 29.71 in 10.0 mi SE 13.8 mph - N/A   Clear
8:55 PM 78.8 °F - 53.6 °F 42% 29.72 in 10.0 mi SSE 6.9 mph - N/A   Clear
9:15 PM 77.0 °F - 51.8 °F 41% 29.73 in 10.0 mi NW 8.1 mph - N/A   Clear
9:35 PM 80.6 °F - 50.0 °F 34% 29.74 in 10.0 mi North 3.5 mph - N/A   Clear
9:55 PM 82.4 °F - 48.2 °F 30% 29.75 in 10.0 mi Calm Calm - N/A   Clear
10:15 PM 77.0 °F - 51.8 °F 41% 29.76 in 10.0 mi North 8.1 mph - N/A   Clear
10:35 PM 75.2 °F - 50.0 °F 41% 29.77 in 10.0 mi NE 17.3 mph 24.2 mph N/A   Clear
10:55 PM 75.2 °F - 50.0 °F 41% 29.78 in 10.0 mi NNE 15.0 mph - N/A   Clear
11:15 PM 75.2 °F - 48.2 °F 38% 29.79 in 10.0 mi NE 19.6 mph - N/A   Clear
11:35 PM 73.4 °F - 48.2 °F 41% 29.80 in 10.0 mi NE 9.2 mph - N/A   Clear
11:55 PM 71.6 °F - 48.2 °F 43% 29.81 in 10.0 mi NE 9.2 mph - N/A   Clear